x

Southeast Hawaii - 205 Nm Southeast Of Hilo, Hi (51004) Wave Buoy

3:50am - Mon 24th Jul 2017 All times are HST. -10 hours from GMT.

  • Sig Wave height 5.9ft
  • Swell Direction
  • Peak Period 8s
  • Average Period 6s
  • Wind
    16mph, 18mph gusts
  • Sea Temp 80°f
  • Sea Pressure 1012.9mb
  • Southeast Hawaii - 205 Nm Southeast Of Hilo, Hi
  • Southeast Hawaii - 205 Nm Southeast Of Hilo, Hi

More Historic Weather Station data

Upgrade to MSW Pro to gain access to the past 30 days of data for over 8000 Wavebouys and Weather Stations around the globe.

Join Pro

Comparision Forecast

View Surf forecast
   
Mon 07/24 3:50am 6ft 8s 6s 16 18 mph 1012.9mb 80f
2:50am 5.5ft 11s 6s 16 20 mph 1013.1mb 80f
1:50am 6ft 9s  -  16 18 mph 1013.3mb 80f
12:50am 6ft 8s 6s 16 20 mph 1013.8mb 80f
Sun 07/23 11:50pm 5.5ft 9s 6s 16 18 mph 1014.3mb 80f
10:50pm 5ft 11s 6s 18 22 mph 1014.4mb 80f
9:50pm 5ft 8s 6s 18 22 mph 1014mb 80f
8:50pm 5.5ft 8s 6s 16 20 mph 1013.6mb 80f
7:50pm 5ft 8s 7s 13 18 mph 1013.1mb 80f
6:50pm 5.5ft 9s 7s 16 18 mph 1012.3mb 80f
5:50pm 5.5ft 10s 7s 7 11 mph 1012mb 81f
4:50pm 5ft 10s 7s 13 18 mph 1011.7mb 81f
3:50pm 5.5ft 8s 7s 11 13 mph 1011.7mb 81f
2:50pm 6ft 8s 7s 9 11 mph 1012mb 81f
1:50pm 6.5ft 9s 8s 7 9 mph 1012.7mb 81f
12:50pm 6ft 10s 7s 7 9 mph 1013mb 81f
11:50am 5.5ft 9s 7s 9 9 mph 1013.4mb 81f
10:50am 5.5ft 9s 7s 7 7 mph 1013.5mb 80f
9:50am 6.5ft 9s 7s 7 9 mph 1013.7mb 80f
8:50am 6.5ft 9s 8s 4 7 mph 1013.7mb 80f
7:50am 5.5ft 9s 7s 4 4 mph 1013.5mb 79f
6:50am 6ft 10s 7s 7 9 mph 1013.2mb 79f
5:50am 6.5ft 10s 7s 7 9 mph 1012.7mb 79f
4:50am 6.5ft 9s 7s 9 9 mph 1012.4mb 79f
3:50am 6.5ft 9s 7s 11 13 mph 1012.2mb 79f
2:50am 7.5ft 9s 7s 11 13 mph 1012.4mb 79f
1:50am 7.5ft 10s 8s 11 13 mph 1012.8mb 79f
12:50am 7ft 10s 7s 11 13 mph 1013.5mb 79f
Sat 07/22 11:50pm 7ft 10s 7s 11 13 mph 1014.3mb 79f
10:50pm 6ft 9s 7s 13 16 mph 1014.6mb 79f
9:50pm 7ft 10s 7s 16 18 mph 1014.4mb 80f
8:50pm 7ft 10s 8s 13 16 mph 1014.1mb 80f
7:50pm 6.5ft 10s 7s 13 16 mph 1013.9mb 80f
6:50pm 8ft 11s 8s 11 16 mph 1013.5mb 80f
5:50pm 8ft 11s 8s 11 13 mph 1012.9mb 80f
4:50pm 7ft 10s 7s 11 13 mph 1012.7mb 80f
3:50pm 7.5ft 11s 7s 13 16 mph 1012.8mb 80f
2:50pm 8ft 11s 8s 11 16 mph 1013.2mb 80f
1:50pm 7ft 11s 7s 13 16 mph 1013.6mb 80f
12:50pm 7.5ft 11s 7s 13 16 mph 1014.1mb 80f
11:50am 9ft 11s 8s 13 16 mph 1014.4mb 80f
10:50am 7ft 11s 7s 13 16 mph 1014.5mb 79f
9:50am 8ft 11s 8s 13 18 mph 1014.6mb 79f
8:50am 8ft 11s 7s 13 18 mph 1014.4mb 79f
7:50am 8ft 11s 7s 16 18 mph 1014.2mb 79f
6:50am 8ft 11s 7s 16 20 mph 1013.7mb 79f
5:50am 9ft 11s 8s 16 18 mph 1013.2mb 79f
4:50am 8ft 11s 7s 16 20 mph 1012.8mb 79f
3:50am 8.5ft 11s 7s 20 25 mph 1012.6mb 79f
2:50am 9ft 12s 8s 16 20 mph 1012.7mb 79f
1:50am 8ft 11s 7s 16 18 mph 1013.2mb 79f
12:50am 9ft 11s  -  18 20 mph 1013.7mb 79f
Fri 07/21 11:50pm 7.5ft 9s 7s 13 16 mph 1014.4mb 79f
10:50pm 7.5ft 12s 7s 13 16 mph 1014.9mb 79f
9:50pm 8.5ft 10s 7s 18 22 mph 1014.9mb 79f
8:50pm 7.5ft 9s 7s 16 18 mph 1014.5mb 79f
7:50pm 8ft 9s 7s 18 20 mph 1014mb 79f
6:50pm 8ft 11s 7s 16 20 mph 1013.6mb 79f
5:50pm 8ft 10s 7s 16 20 mph 1013.2mb 79f
4:50pm 8ft 10s 7s 18 20 mph 1013mb 79f
3:50pm 8.5ft 10s 7s 18 22 mph 1012.7mb 79f
2:50pm 8ft 10s 7s 18 22 mph 1013mb 79f
1:50pm 8.5ft 10s 7s 18 20 mph 1013.7mb 79f
12:50pm 8ft 10s 7s 16 20 mph 1014.3mb 79f
11:50am 7.5ft 10s 7s 16 20 mph 1014.6mb 79f
10:50am 8ft 10s 7s 16 20 mph 1015.2mb 79f
9:50am 8ft 8s 7s 18 20 mph 1015.5mb 79f
8:50am 8.5ft 10s 7s 22 25 mph 1015.4mb 79f
7:50am 8ft 9s 7s 16 20 mph 1015.3mb 79f
6:50am 8ft 9s 7s 18 22 mph 1014.9mb 79f
5:50am 8ft 10s 7s 18 22 mph 1014mb 79f
3:50am 8ft 9s 7s 18 22 mph 1013.3mb 79f
2:50am 7ft 12s 7s 16 20 mph 1013.6mb 79f
1:50am 7.5ft 10s 6s 18 22 mph 1013.9mb 79f
12:50am 8ft 8s 6s 16 20 mph 1014.5mb 79f
Thu 07/20 11:50pm 7.5ft 9s 6s 18 22 mph 1015.1mb 79f
10:50pm 7.5ft 8s 6s 16 20 mph 1015.7mb 79f
9:50pm 7.5ft 9s 6s 18 22 mph 1015.4mb 79f
8:50pm 7ft 9s 6s 20 22 mph 1014.8mb 79f
7:50pm 7.5ft 8s 6s 20 22 mph 1014.4mb 79f
6:50pm 8ft 8s 6s 20 22 mph 1013.9mb 79f
5:50pm 8ft 9s 6s 22 25 mph 1013.5mb 79f
4:50pm 7ft 8s 6s 20 25 mph 1013.5mb 79f
3:50pm 7ft 9s 6s 22 29 mph 1013.6mb 79f